createdAt,value
2022-10-04T00:00:19.014Z,0.00
2022-10-04T00:01:18.999Z,0.00
2022-10-04T00:02:18.907Z,0.00
2022-10-04T00:03:18.912Z,0.00
2022-10-04T00:04:18.799Z,0.00
2022-10-04T00:05:18.743Z,0.00
2022-10-04T00:06:18.688Z,0.00
2022-10-04T00:07:18.639Z,0.00
2022-10-04T00:08:18.580Z,0.00
2022-10-04T00:09:18.527Z,0.00
2022-10-04T00:10:18.544Z,0.00
2022-10-04T00:11:18.416Z,0.00
2022-10-04T00:12:18.362Z,0.00
2022-10-04T00:13:18.306Z,0.00
2022-10-04T00:14:18.254Z,0.00
2022-10-04T00:15:18.200Z,0.00
2022-10-04T00:16:29.062Z,0.00
2022-10-04T00:17:18.799Z,0.00
2022-10-04T00:18:18.792Z,0.00
2022-10-04T00:19:17.982Z,0.00
2022-10-04T00:20:17.929Z,0.00
2022-10-04T00:21:17.873Z,0.00
2022-10-04T00:22:17.820Z,0.00
2022-10-04T00:23:18.169Z,0.00
2022-10-04T00:24:17.711Z,0.00
2022-10-04T00:25:17.655Z,0.00
2022-10-04T00:26:17.603Z,0.00
2022-10-04T00:27:17.550Z,0.00
2022-10-04T00:28:17.523Z,0.00
2022-10-04T00:29:17.438Z,0.00
2022-10-04T00:30:17.388Z,0.00
2022-10-04T00:31:17.387Z,0.00
2022-10-04T00:32:17.277Z,0.00
2022-10-04T00:33:17.220Z,0.00
2022-10-04T00:34:17.172Z,0.00
2022-10-04T00:35:17.113Z,0.00
2022-10-04T00:36:17.059Z,0.00
2022-10-04T00:37:17.003Z,0.00
2022-10-04T00:38:16.957Z,0.00
2022-10-04T00:39:16.900Z,0.00
2022-10-04T00:40:16.842Z,0.00
2022-10-04T00:41:16.786Z,0.00
2022-10-04T00:42:16.734Z,0.00
2022-10-04T00:43:16.680Z,0.00
2022-10-04T00:44:16.631Z,0.00
2022-10-04T00:45:16.572Z,0.00
2022-10-04T00:46:16.595Z,0.00
2022-10-04T00:47:16.460Z,0.00
2022-10-04T00:48:16.408Z,0.00
2022-10-04T00:49:16.351Z,0.00
2022-10-04T00:50:16.299Z,0.00
2022-10-04T00:51:16.244Z,0.00
2022-10-04T00:52:16.190Z,0.00
2022-10-04T00:53:16.133Z,0.00
2022-10-04T00:54:16.082Z,0.00
2022-10-04T00:55:16.032Z,0.00
2022-10-04T00:56:15.971Z,0.00
2022-10-04T00:57:15.915Z,0.00
2022-10-04T00:58:15.863Z,0.00
2022-10-04T00:59:15.810Z,0.00
2022-10-04T01:00:15.756Z,0.00
2022-10-04T01:01:15.828Z,0.00
2022-10-04T01:02:15.702Z,0.00
2022-10-04T01:03:15.590Z,0.00
2022-10-04T01:04:15.537Z,0.00
2022-10-04T01:05:15.550Z,0.00
2022-10-04T01:06:15.430Z,0.00
2022-10-04T01:07:15.374Z,0.00
2022-10-04T01:08:15.323Z,0.00
2022-10-04T01:09:15.268Z,0.00
2022-10-04T01:10:15.211Z,0.00
2022-10-04T01:11:15.162Z,0.00
2022-10-04T01:12:15.102Z,0.00
2022-10-04T01:13:15.045Z,0.00
2022-10-04T01:14:14.995Z,0.00
2022-10-04T01:15:14.938Z,0.00
2022-10-04T01:16:14.959Z,0.00
2022-10-04T01:17:14.832Z,0.00
2022-10-04T01:18:14.787Z,0.00
2022-10-04T01:19:14.721Z,0.00
2022-10-04T01:20:14.671Z,0.00
2022-10-04T01:21:14.611Z,0.00
2022-10-04T01:22:14.563Z,0.00
2022-10-04T01:23:14.504Z,0.00
2022-10-04T01:24:14.448Z,0.00
2022-10-04T01:25:14.393Z,0.00
2022-10-04T01:26:14.340Z,0.00
2022-10-04T01:27:14.293Z,0.00
2022-10-04T01:28:14.259Z,0.00
2022-10-04T01:29:14.178Z,0.00
2022-10-04T01:30:14.122Z,0.00
2022-10-04T01:31:14.096Z,0.00
2022-10-04T01:32:14.028Z,0.00
2022-10-04T01:33:13.968Z,0.00
2022-10-04T01:34:14.041Z,0.00
2022-10-04T01:35:13.851Z,0.00
2022-10-04T01:36:13.793Z,0.00
2022-10-04T01:37:13.743Z,0.00
2022-10-04T01:38:13.685Z,0.00
2022-10-04T01:39:13.632Z,0.00
2022-10-04T01:40:13.576Z,0.00
2022-10-04T01:41:13.522Z,0.00
2022-10-04T01:42:13.466Z,0.00
2022-10-04T01:43:16.329Z,0.00
2022-10-04T01:44:13.360Z,0.00
2022-10-04T01:45:13.304Z,0.00
2022-10-04T01:46:13.314Z,0.00
2022-10-04T01:47:13.196Z,0.00
2022-10-04T01:48:13.139Z,0.00
2022-10-04T01:49:13.088Z,0.00
2022-10-04T01:50:15.871Z,0.00
2022-10-04T01:51:12.978Z,0.00
2022-10-04T01:52:12.921Z,0.00
2022-10-04T01:53:12.868Z,0.00
2022-10-04T01:54:12.817Z,0.00
2022-10-04T01:55:12.762Z,0.00
2022-10-04T01:56:12.707Z,0.00
2022-10-04T01:57:12.650Z,0.00
2022-10-04T01:58:12.595Z,0.00
2022-10-04T01:59:12.550Z,0.00
2022-10-04T02:00:12.494Z,0.00
2022-10-04T02:01:12.464Z,0.00
2022-10-04T02:02:12.377Z,0.00
2022-10-04T02:03:12.325Z,0.00
2022-10-04T02:04:12.329Z,0.00
2022-10-04T02:05:12.215Z,0.00
2022-10-04T02:06:12.194Z,0.00
2022-10-04T02:07:12.107Z,0.00
2022-10-04T02:08:12.101Z,0.00
2022-10-04T02:09:11.999Z,0.00
2022-10-04T02:10:11.944Z,0.00
2022-10-04T02:11:11.890Z,0.00
2022-10-04T02:12:11.830Z,0.00
2022-10-04T02:13:11.779Z,0.00
2022-10-04T02:14:11.727Z,0.00
2022-10-04T02:15:11.680Z,0.00
2022-10-04T02:16:11.651Z,0.00
2022-10-04T02:17:11.562Z,0.00
2022-10-04T02:18:11.508Z,0.00
2022-10-04T02:19:11.454Z,0.00
2022-10-04T02:20:11.394Z,0.00
2022-10-04T02:21:11.340Z,0.00
2022-10-04T02:22:11.297Z,0.00
2022-10-04T02:23:11.236Z,0.00
2022-10-04T02:24:11.176Z,0.00
2022-10-04T02:25:11.123Z,0.00
2022-10-04T02:26:11.070Z,0.00
2022-10-04T02:27:11.016Z,0.00
2022-10-04T02:28:11.174Z,0.00
2022-10-04T02:29:10.904Z,0.00
2022-10-04T02:30:10.859Z,0.00
2022-10-04T02:31:10.900Z,0.00
2022-10-04T02:32:10.742Z,0.00
2022-10-04T02:33:10.694Z,0.00
2022-10-04T02:34:10.630Z,0.00
2022-10-04T02:35:10.579Z,0.00
2022-10-04T02:36:10.524Z,0.00
2022-10-04T02:37:10.470Z,0.00
2022-10-04T02:38:10.412Z,0.00
2022-10-04T02:39:10.359Z,0.00
2022-10-04T02:40:10.307Z,0.00
2022-10-04T02:41:10.250Z,0.00
2022-10-04T02:42:10.202Z,0.00
2022-10-04T02:43:10.141Z,0.00
2022-10-04T02:44:10.084Z,0.00
2022-10-04T02:45:10.035Z,0.00
2022-10-04T02:46:10.031Z,0.00
2022-10-04T02:47:09.933Z,0.00
2022-10-04T02:48:09.864Z,0.00
2022-10-04T02:49:09.813Z,0.00
2022-10-04T02:50:09.756Z,0.00
2022-10-04T02:51:09.705Z,0.00
2022-10-04T02:52:09.648Z,0.00
2022-10-04T02:53:09.597Z,0.00
2022-10-04T02:54:09.539Z,0.00
2022-10-04T02:55:09.486Z,0.00
2022-10-04T02:56:09.428Z,0.00
2022-10-04T02:57:09.377Z,0.00
2022-10-04T02:58:09.325Z,0.00
2022-10-04T02:59:09.268Z,0.00
2022-10-04T03:00:09.222Z,0.00
2022-10-04T03:01:09.267Z,0.00
2022-10-04T03:02:09.188Z,0.00
2022-10-04T03:03:09.057Z,0.00
2022-10-04T03:04:08.992Z,0.00
2022-10-04T03:05:08.941Z,0.00
2022-10-04T03:06:08.881Z,0.00
2022-10-04T03:07:08.831Z,0.00
2022-10-04T03:08:08.772Z,0.00
2022-10-04T03:09:08.719Z,0.00
2022-10-04T03:10:08.663Z,0.00
2022-10-04T03:11:08.611Z,0.00
2022-10-04T03:12:08.556Z,0.00
2022-10-04T03:13:08.502Z,0.00
2022-10-04T03:14:08.444Z,0.00
2022-10-04T03:15:08.393Z,0.00
2022-10-04T03:16:08.374Z,0.00
2022-10-04T03:17:08.283Z,0.00
2022-10-04T03:18:08.227Z,0.00
2022-10-04T03:19:08.185Z,0.00
2022-10-04T03:20:08.116Z,0.00
2022-10-04T03:21:08.062Z,0.00
2022-10-04T03:22:08.008Z,0.00
2022-10-04T03:23:07.953Z,0.00
2022-10-04T03:24:07.896Z,0.00
2022-10-04T03:25:07.846Z,0.00
2022-10-04T03:26:07.789Z,0.00
2022-10-04T03:27:07.741Z,0.00
2022-10-04T03:28:07.733Z,0.00
2022-10-04T03:29:07.631Z,0.00
2022-10-04T03:30:07.571Z,0.00
2022-10-04T03:31:07.591Z,0.00
2022-10-04T03:32:07.460Z,0.00
2022-10-04T03:33:07.411Z,0.00
2022-10-04T03:34:07.360Z,0.00
2022-10-04T03:35:07.302Z,0.00
2022-10-04T03:36:07.244Z,0.00
2022-10-04T03:37:07.187Z,0.00
2022-10-04T03:38:07.139Z,0.00
2022-10-04T03:39:07.080Z,0.00
2022-10-04T03:40:07.028Z,0.00
2022-10-04T03:41:06.967Z,0.00
2022-10-04T03:42:06.911Z,0.00
2022-10-04T03:43:06.863Z,0.00
2022-10-04T03:44:06.803Z,0.00
2022-10-04T03:45:06.756Z,0.00
2022-10-04T03:46:06.774Z,0.00
2022-10-04T03:47:06.643Z,0.00
2022-10-04T03:48:06.585Z,0.00
2022-10-04T03:49:06.532Z,0.00
2022-10-04T03:50:06.485Z,0.00
2022-10-04T03:51:06.429Z,0.00
2022-10-04T03:52:06.363Z,0.00
2022-10-04T03:53:06.311Z,0.00
2022-10-04T03:54:06.255Z,0.00
2022-10-04T03:55:06.201Z,0.00
2022-10-04T03:56:06.144Z,0.00
2022-10-04T03:57:06.092Z,0.00
2022-10-04T03:58:06.035Z,0.00
2022-10-04T03:59:05.984Z,0.00
2022-10-04T04:00:05.933Z,0.00
2022-10-04T04:01:05.937Z,0.00
2022-10-04T04:02:05.902Z,0.00
2022-10-04T04:03:05.768Z,0.00
2022-10-04T04:04:05.707Z,0.00
2022-10-04T04:05:05.652Z,0.00
2022-10-04T04:06:05.599Z,0.00
2022-10-04T04:07:05.558Z,0.00
2022-10-04T04:08:05.494Z,0.00
2022-10-04T04:09:05.437Z,0.00
2022-10-04T04:10:05.379Z,0.00
2022-10-04T04:11:05.324Z,0.00
2022-10-04T04:12:05.269Z,0.00
2022-10-04T04:13:05.214Z,0.00
2022-10-04T04:14:05.159Z,0.00
2022-10-04T04:15:05.108Z,0.00
2022-10-04T04:16:05.121Z,0.00
2022-10-04T04:17:04.996Z,0.00
2022-10-04T04:18:04.939Z,0.00
2022-10-04T04:19:04.892Z,0.00
2022-10-04T04:20:07.413Z,0.00
2022-10-04T04:21:04.777Z,0.00
2022-10-04T04:22:04.720Z,0.00
2022-10-04T04:23:04.674Z,0.00
2022-10-04T04:24:04.609Z,0.00
2022-10-04T04:25:04.556Z,0.00
2022-10-04T04:26:04.501Z,0.00
2022-10-04T04:27:04.447Z,0.00
2022-10-04T04:28:04.431Z,0.00
2022-10-04T04:29:04.338Z,0.00
2022-10-04T04:30:04.281Z,0.00
2022-10-04T04:31:04.228Z,0.00
2022-10-04T04:32:04.213Z,0.00
2022-10-04T04:33:04.118Z,0.00
2022-10-04T04:34:04.069Z,0.00
2022-10-04T04:35:04.009Z,0.00
2022-10-04T04:36:03.952Z,0.00
2022-10-04T04:37:03.900Z,0.00
2022-10-04T04:38:03.849Z,0.00
2022-10-04T04:39:03.796Z,0.00
2022-10-04T04:40:03.732Z,0.00
2022-10-04T04:41:03.680Z,0.00
2022-10-04T04:42:03.623Z,0.00
2022-10-04T04:43:03.568Z,0.00
2022-10-04T04:44:03.512Z,0.00
2022-10-04T04:45:03.459Z,0.00
2022-10-04T04:46:26.229Z,0.00
2022-10-04T04:47:03.350Z,0.00
2022-10-04T04:48:03.297Z,0.00
2022-10-04T04:49:03.241Z,0.00
2022-10-04T04:50:03.182Z,0.00
2022-10-04T04:51:03.131Z,0.00
2022-10-04T04:52:03.080Z,0.00
2022-10-04T04:53:03.021Z,0.00
2022-10-04T04:54:02.965Z,0.00
2022-10-04T04:55:02.919Z,0.00
2022-10-04T04:56:04.530Z,0.00
2022-10-04T04:57:02.804Z,0.00
2022-10-04T04:58:02.745Z,0.00
2022-10-04T04:59:02.692Z,0.00
2022-10-04T05:00:02.648Z,0.00
2022-10-04T05:01:02.616Z,0.00
2022-10-04T05:02:02.579Z,0.00
2022-10-04T05:03:02.471Z,0.00
2022-10-04T05:04:02.415Z,0.00
2022-10-04T05:05:02.362Z,0.00
2022-10-04T05:06:02.305Z,0.00
2022-10-04T05:07:02.266Z,0.00
2022-10-04T05:08:02.195Z,0.00
2022-10-04T05:09:02.141Z,0.00
2022-10-04T05:10:02.085Z,0.00
2022-10-04T05:11:02.049Z,0.00
2022-10-04T05:12:01.973Z,0.00
2022-10-04T05:13:01.921Z,0.00
2022-10-04T05:14:01.865Z,0.00
2022-10-04T05:15:01.812Z,0.00
2022-10-04T05:16:01.810Z,0.00
2022-10-04T05:17:01.701Z,0.00
2022-10-04T05:18:01.647Z,0.00
2022-10-04T05:19:01.591Z,0.00
2022-10-04T05:20:01.535Z,0.00
2022-10-04T05:21:01.482Z,0.00
2022-10-04T05:22:01.431Z,0.00
2022-10-04T05:23:01.375Z,0.00
2022-10-04T05:24:01.315Z,0.00
2022-10-04T05:25:01.264Z,0.00
2022-10-04T05:26:01.207Z,0.00
2022-10-04T05:27:01.162Z,0.00
2022-10-04T05:28:01.157Z,0.00
2022-10-04T05:29:01.041Z,0.00
2022-10-04T05:30:00.986Z,0.00
2022-10-04T05:31:00.934Z,0.00
2022-10-04T05:32:00.946Z,0.00
2022-10-04T05:33:00.820Z,0.00
2022-10-04T05:34:00.771Z,0.00
2022-10-04T05:35:00.713Z,0.00
2022-10-04T05:36:00.657Z,0.00
2022-10-04T05:37:00.600Z,0.00
2022-10-04T05:38:00.546Z,0.00
2022-10-04T05:39:00.499Z,4.00
2022-10-04T05:40:00.433Z,4.00
2022-10-04T05:41:00.382Z,4.00
2022-10-04T05:42:00.324Z,4.00
2022-10-04T05:43:00.276Z,4.00
2022-10-04T05:44:00.215Z,4.00
2022-10-04T05:45:00.162Z,0.00
2022-10-04T05:46:00.150Z,0.00
2022-10-04T05:47:00.051Z,0.00
2022-10-04T05:47:59.995Z,4.00
2022-10-04T05:48:59.945Z,4.00
2022-10-04T05:49:59.889Z,4.00
2022-10-04T05:50:59.830Z,4.00
2022-10-04T05:51:59.775Z,4.00
2022-10-04T05:52:59.719Z,4.00
2022-10-04T05:53:59.667Z,4.00
2022-10-04T05:54:59.609Z,4.00
2022-10-04T05:55:59.557Z,4.00
2022-10-04T05:56:59.527Z,4.00
2022-10-04T05:57:59.444Z,4.00
2022-10-04T05:58:59.394Z,4.00
2022-10-04T06:00:03.913Z,8.00
2022-10-04T06:00:59.298Z,8.00
2022-10-04T06:01:59.312Z,4.00
2022-10-04T06:02:59.242Z,4.00
2022-10-04T06:03:59.115Z,8.00
2022-10-04T06:04:59.058Z,8.00
2022-10-04T06:05:59.004Z,8.00
2022-10-04T06:06:58.950Z,4.00
2022-10-04T06:07:58.897Z,8.00
2022-10-04T06:08:58.836Z,8.00
2022-10-04T06:09:58.784Z,8.00
2022-10-04T06:10:58.727Z,8.00
2022-10-04T06:11:58.673Z,8.00
2022-10-04T06:12:58.621Z,8.00
2022-10-04T06:13:58.563Z,8.00
2022-10-04T06:14:58.570Z,8.00
2022-10-04T06:15:58.452Z,8.00
2022-10-04T06:16:58.437Z,8.00
2022-10-04T06:17:58.342Z,8.00
2022-10-04T06:18:58.286Z,8.00
2022-10-04T06:19:58.234Z,8.00
2022-10-04T06:20:58.179Z,8.00
2022-10-04T06:21:58.124Z,8.00
2022-10-04T06:22:58.066Z,8.00
2022-10-04T06:23:58.014Z,8.00
2022-10-04T06:24:57.954Z,8.00
2022-10-04T06:25:57.901Z,8.00
2022-10-04T06:26:57.848Z,8.00
2022-10-04T06:27:57.845Z,12.00
2022-10-04T06:28:57.734Z,12.00
2022-10-04T06:29:57.681Z,12.00
2022-10-04T06:30:57.707Z,12.00
2022-10-04T06:31:57.580Z,12.00
2022-10-04T06:32:57.515Z,12.00
2022-10-04T06:33:57.461Z,8.00
2022-10-04T06:34:57.404Z,8.00
2022-10-04T06:35:57.354Z,8.00
2022-10-04T06:36:57.293Z,12.00
2022-10-04T06:37:57.242Z,12.00
2022-10-04T06:38:59.055Z,12.00
2022-10-04T06:39:57.129Z,12.00
2022-10-04T06:40:57.073Z,8.00
2022-10-04T06:41:57.020Z,12.00
2022-10-04T06:42:56.967Z,12.00
2022-10-04T06:43:56.909Z,12.00
2022-10-04T06:44:56.854Z,12.00
2022-10-04T06:45:56.862Z,16.00
2022-10-04T06:46:56.748Z,16.00
2022-10-04T06:47:56.691Z,16.00
2022-10-04T06:48:56.644Z,12.00
2022-10-04T06:49:56.580Z,16.00
2022-10-04T06:50:56.523Z,16.00
2022-10-04T06:51:56.470Z,16.00
2022-10-04T06:52:56.412Z,16.00
2022-10-04T06:53:56.364Z,16.00
2022-10-04T06:54:56.300Z,16.00
2022-10-04T06:55:56.247Z,16.00
2022-10-04T06:56:56.196Z,16.00
2022-10-04T06:57:56.144Z,12.00
2022-10-04T06:58:56.081Z,16.00
2022-10-04T06:59:56.027Z,16.00
2022-10-04T07:00:56.046Z,16.00
2022-10-04T07:01:55.941Z,16.00
2022-10-04T07:02:55.999Z,16.00
2022-10-04T07:03:55.808Z,16.00
2022-10-04T07:05:08.012Z,16.00
2022-10-04T07:05:55.696Z,16.00
2022-10-04T07:06:55.642Z,16.00
2022-10-04T07:07:55.584Z,16.00
2022-10-04T07:08:55.529Z,16.00
2022-10-04T07:09:55.476Z,16.00
2022-10-04T07:11:16.412Z,16.00
2022-10-04T07:11:55.363Z,20.00
2022-10-04T07:12:55.309Z,20.00
2022-10-04T07:13:55.251Z,20.00
2022-10-04T07:14:55.199Z,20.00
2022-10-04T07:15:55.177Z,20.00
2022-10-04T07:16:55.089Z,20.00
2022-10-04T07:17:55.032Z,20.00
2022-10-04T07:18:54.985Z,20.00
2022-10-04T07:19:54.924Z,16.00
2022-10-04T07:20:54.866Z,20.00
2022-10-04T07:21:54.813Z,20.00
2022-10-04T07:22:54.757Z,20.00
2022-10-04T07:23:54.705Z,16.00
2022-10-04T07:24:54.648Z,16.00
2022-10-04T07:25:54.592Z,16.00
2022-10-04T07:26:54.536Z,20.00
2022-10-04T07:27:54.518Z,20.00
2022-10-04T07:28:54.426Z,20.00
2022-10-04T07:29:54.369Z,20.00
2022-10-04T07:30:54.355Z,20.00
2022-10-04T07:31:54.257Z,20.00
2022-10-04T07:32:54.203Z,20.00
2022-10-04T07:33:54.147Z,20.00
2022-10-04T07:34:54.102Z,20.00
2022-10-04T07:35:54.040Z,20.00
2022-10-04T07:36:53.983Z,20.00
2022-10-04T07:37:53.928Z,20.00
2022-10-04T07:38:53.875Z,20.00
2022-10-04T07:39:53.816Z,20.00
2022-10-04T07:40:53.766Z,16.00
2022-10-04T07:41:53.709Z,20.00
2022-10-04T07:42:53.652Z,20.00
2022-10-04T07:43:53.597Z,20.00
2022-10-04T07:44:53.541Z,20.00
2022-10-04T07:45:53.545Z,20.00
2022-10-04T07:46:53.433Z,20.00
2022-10-04T07:47:53.374Z,20.00
2022-10-04T07:48:53.321Z,20.00
2022-10-04T07:49:53.265Z,20.00
2022-10-04T07:50:53.217Z,20.00
2022-10-04T07:51:53.154Z,24.00
2022-10-04T07:52:53.102Z,24.00
2022-10-04T07:53:53.043Z,20.00
2022-10-04T07:54:52.990Z,24.00
2022-10-04T07:55:52.933Z,24.00
2022-10-04T07:56:52.880Z,28.00
2022-10-04T07:57:52.823Z,28.00
2022-10-04T07:58:52.772Z,32.00
2022-10-04T07:59:52.711Z,32.00
2022-10-04T08:00:52.659Z,36.00
2022-10-04T08:01:52.644Z,36.00
2022-10-04T08:02:52.642Z,40.00
2022-10-04T08:03:52.491Z,44.00
2022-10-04T08:04:52.464Z,44.00
2022-10-04T08:05:52.381Z,48.00
2022-10-04T08:06:52.339Z,48.00
2022-10-04T08:07:52.270Z,48.00
2022-10-04T08:08:52.217Z,48.00
2022-10-04T08:09:52.170Z,48.00
2022-10-04T08:10:55.339Z,48.00
2022-10-04T08:11:52.050Z,48.00
2022-10-04T08:12:51.996Z,52.00
2022-10-04T08:13:51.941Z,56.00
2022-10-04T08:14:51.887Z,48.00
2022-10-04T08:15:51.878Z,52.00
2022-10-04T08:16:51.774Z,52.00
2022-10-04T08:17:51.720Z,60.00
2022-10-04T08:18:51.664Z,64.00
2022-10-04T08:19:51.622Z,76.00
2022-10-04T08:20:51.553Z,76.00
2022-10-04T08:21:51.497Z,64.00
2022-10-04T08:22:51.448Z,64.00
2022-10-04T08:23:51.393Z,80.00
2022-10-04T08:24:53.662Z,76.00
2022-10-04T08:25:51.275Z,84.00
2022-10-04T08:26:51.222Z,84.00
2022-10-04T08:27:51.230Z,80.00
2022-10-04T08:28:51.112Z,92.00
2022-10-04T08:29:51.062Z,88.00
2022-10-04T08:30:51.043Z,88.00
2022-10-04T08:31:50.971Z,88.00
2022-10-04T08:32:50.900Z,88.00
2022-10-04T08:33:50.835Z,100.00
2022-10-04T08:34:50.780Z,100.00
2022-10-04T08:35:50.723Z,88.00
2022-10-04T08:36:50.758Z,88.00
2022-10-04T08:37:50.613Z,92.00
2022-10-04T08:38:50.567Z,92.00
2022-10-04T08:39:50.503Z,92.00
2022-10-04T08:40:50.449Z,100.00
2022-10-04T08:41:50.394Z,96.00
2022-10-04T08:42:50.341Z,100.00
2022-10-04T08:43:50.282Z,100.00
2022-10-04T08:44:50.229Z,96.00
2022-10-04T08:45:50.183Z,104.00
2022-10-04T08:46:50.196Z,100.00
2022-10-04T08:47:50.061Z,96.00
2022-10-04T08:48:50.007Z,92.00
2022-10-04T08:49:49.955Z,84.00
2022-10-04T08:50:49.898Z,84.00
2022-10-04T08:51:49.840Z,84.00
2022-10-04T08:52:49.787Z,88.00
2022-10-04T08:53:49.731Z,92.00
2022-10-04T08:54:49.692Z,88.00
2022-10-04T08:55:49.620Z,88.00
2022-10-04T08:56:49.566Z,80.00
2022-10-04T08:57:49.513Z,72.00
2022-10-04T08:58:49.456Z,80.00
2022-10-04T08:59:49.401Z,80.00
2022-10-04T09:00:49.345Z,84.00
2022-10-04T09:01:49.359Z,92.00
2022-10-04T09:02:49.268Z,88.00
2022-10-04T09:03:49.180Z,80.00
2022-10-04T09:04:55.930Z,88.00
2022-10-04T09:05:49.071Z,100.00
2022-10-04T09:06:49.017Z,96.00
2022-10-04T09:07:48.958Z,96.00
2022-10-04T09:08:48.905Z,100.00
2022-10-04T09:09:48.847Z,112.00
2022-10-04T09:10:48.798Z,104.00
2022-10-04T09:11:48.738Z,112.00
2022-10-04T09:12:48.683Z,108.00
2022-10-04T09:13:48.626Z,112.00
2022-10-04T09:14:48.574Z,104.00
2022-10-04T09:15:48.577Z,108.00
2022-10-04T09:16:48.468Z,116.00
2022-10-04T09:17:48.409Z,120.00
2022-10-04T09:18:48.355Z,116.00
2022-10-04T09:19:48.295Z,104.00
2022-10-04T09:20:48.242Z,112.00
2022-10-04T09:21:48.185Z,112.00
2022-10-04T09:22:48.213Z,116.00
2022-10-04T09:23:48.076Z,120.00
2022-10-04T09:24:48.023Z,112.00
2022-10-04T09:25:47.967Z,124.00
2022-10-04T09:26:47.919Z,128.00
2022-10-04T09:27:54.919Z,120.00
2022-10-04T09:28:47.801Z,116.00
2022-10-04T09:29:47.746Z,116.00
2022-10-04T09:30:47.737Z,116.00
2022-10-04T09:31:47.652Z,116.00
2022-10-04T09:32:47.581Z,104.00
2022-10-04T09:33:47.528Z,108.00
2022-10-04T09:34:47.472Z,112.00
2022-10-04T09:35:47.413Z,108.00
2022-10-04T09:36:47.370Z,108.00
2022-10-04T09:37:47.307Z,124.00
2022-10-04T09:38:47.252Z,132.00
2022-10-04T09:39:47.193Z,132.00
2022-10-04T09:40:47.475Z,132.00
2022-10-04T09:41:47.084Z,140.00
2022-10-04T09:42:47.035Z,140.00
2022-10-04T09:43:46.974Z,144.00
2022-10-04T09:44:46.921Z,144.00
2022-10-04T09:45:46.864Z,148.00
2022-10-04T09:46:47.441Z,140.00
2022-10-04T09:47:46.753Z,136.00
2022-10-04T09:48:46.699Z,132.00
2022-10-04T09:49:46.642Z,132.00
2022-10-04T09:50:46.590Z,136.00
2022-10-04T09:51:46.535Z,140.00
2022-10-04T09:52:46.478Z,144.00
2022-10-04T09:53:46.506Z,148.00
2022-10-04T09:54:46.370Z,152.00
2022-10-04T09:55:46.313Z,152.00
2022-10-04T09:56:46.719Z,152.00
2022-10-04T09:57:46.205Z,160.00
2022-10-04T09:58:46.180Z,164.00
2022-10-04T09:59:46.091Z,168.00
2022-10-04T10:00:46.038Z,176.00
2022-10-04T10:01:46.057Z,180.00
2022-10-04T10:02:46.062Z,200.00
2022-10-04T10:03:45.877Z,208.00
2022-10-04T10:04:45.818Z,212.00
2022-10-04T10:05:45.765Z,172.00
2022-10-04T10:06:46.074Z,220.00
2022-10-04T10:07:45.654Z,232.00
2022-10-04T10:08:52.525Z,232.00
2022-10-04T10:09:45.543Z,244.00
2022-10-04T10:10:45.494Z,268.00
2022-10-04T10:11:45.710Z,248.00
2022-10-04T10:12:45.392Z,248.00
2022-10-04T10:13:45.325Z,252.00
2022-10-04T10:14:45.279Z,240.00
2022-10-04T10:15:45.258Z,240.00
2022-10-04T10:16:45.644Z,240.00
2022-10-04T10:17:45.102Z,248.00
2022-10-04T10:18:45.047Z,256.00
2022-10-04T10:19:44.993Z,264.00
2022-10-04T10:20:44.947Z,280.00
2022-10-04T10:21:44.894Z,348.00
2022-10-04T10:22:44.827Z,408.00
2022-10-04T10:23:44.779Z,424.00
2022-10-04T10:24:44.718Z,440.00
2022-10-04T10:25:44.664Z,476.00
2022-10-04T10:26:45.049Z,500.00
2022-10-04T10:27:44.552Z,536.00
2022-10-04T10:28:44.499Z,532.00
2022-10-04T10:29:44.445Z,572.00
2022-10-04T10:30:44.394Z,600.00
2022-10-04T10:31:47.652Z,636.00
2022-10-04T10:32:44.276Z,644.00
2022-10-04T10:33:44.224Z,620.00
2022-10-04T10:34:44.167Z,576.00
2022-10-04T10:35:44.117Z,516.00
2022-10-04T10:36:44.362Z,484.00
2022-10-04T10:37:44.004Z,428.00
2022-10-04T10:38:43.949Z,392.00
2022-10-04T10:39:43.894Z,368.00
2022-10-04T10:40:43.844Z,340.00
2022-10-04T10:41:43.783Z,316.00
2022-10-04T10:42:43.730Z,300.00
2022-10-04T10:43:43.674Z,296.00
2022-10-04T10:44:43.617Z,276.00
2022-10-04T10:45:43.564Z,276.00
2022-10-04T10:46:43.936Z,284.00
2022-10-04T10:47:43.454Z,288.00
2022-10-04T10:48:43.398Z,292.00
2022-10-04T10:49:43.347Z,324.00
2022-10-04T10:50:43.290Z,332.00
2022-10-04T10:51:43.235Z,364.00
2022-10-04T10:52:43.189Z,404.00
2022-10-04T10:53:43.128Z,456.00
2022-10-04T10:54:43.071Z,484.00
2022-10-04T10:55:43.016Z,540.00
2022-10-04T10:56:43.248Z,592.00
2022-10-04T10:57:42.911Z,648.00
2022-10-04T10:58:42.850Z,696.00
2022-10-04T10:59:42.796Z,708.00
2022-10-04T11:00:42.746Z,736.00
2022-10-04T11:01:42.781Z,756.00
2022-10-04T11:02:49.882Z,756.00
2022-10-04T11:03:42.717Z,788.00
2022-10-04T11:04:42.525Z,832.00
2022-10-04T11:05:42.467Z,864.00
2022-10-04T11:06:42.910Z,932.00
2022-10-04T11:07:42.365Z,996.00
2022-10-04T11:08:42.302Z,1080.00
2022-10-04T11:09:42.250Z,1116.00
2022-10-04T11:10:42.193Z,1152.00
2022-10-04T11:11:42.138Z,1236.00
2022-10-04T11:12:42.084Z,1268.00
2022-10-04T11:13:42.031Z,1260.00
2022-10-04T11:14:41.974Z,1184.00
2022-10-04T11:15:41.953Z,1140.00
2022-10-04T11:16:42.073Z,1100.00
2022-10-04T11:17:41.812Z,1044.00
2022-10-04T11:18:41.768Z,1024.00
2022-10-04T11:19:41.703Z,1004.00
2022-10-04T11:20:41.651Z,1004.00
2022-10-04T11:21:41.594Z,1060.00
2022-10-04T11:22:41.541Z,1100.00
2022-10-04T11:23:41.483Z,1080.00
2022-10-04T11:24:41.426Z,1060.00
2022-10-04T11:25:41.377Z,1036.00
2022-10-04T11:26:41.321Z,1008.00
2022-10-04T11:27:41.266Z,884.00
2022-10-04T11:28:41.249Z,800.00
2022-10-04T11:29:41.155Z,692.00
2022-10-04T11:30:41.101Z,588.00
2022-10-04T11:31:41.186Z,520.00
2022-10-04T11:32:41.012Z,460.00
2022-10-04T11:33:40.956Z,408.00
2022-10-04T11:34:40.886Z,360.00
2022-10-04T11:35:40.841Z,308.00
2022-10-04T11:36:40.772Z,280.00
2022-10-04T11:37:40.719Z,260.00
2022-10-04T11:38:40.662Z,248.00
2022-10-04T11:39:44.383Z,220.00
2022-10-04T11:40:40.553Z,220.00
2022-10-04T11:41:40.502Z,208.00
2022-10-04T11:42:40.449Z,208.00
2022-10-04T11:43:40.393Z,196.00
2022-10-04T11:44:40.335Z,188.00
2022-10-04T11:46:16.088Z,192.00
2022-10-04T11:46:40.311Z,184.00
2022-10-04T11:47:40.172Z,180.00
2022-10-04T11:48:40.118Z,152.00
2022-10-04T11:49:40.069Z,176.00
2022-10-04T11:50:40.032Z,168.00
2022-10-04T11:51:39.956Z,168.00
2022-10-04T11:52:39.902Z,164.00
2022-10-04T11:53:39.848Z,168.00
2022-10-04T11:54:39.793Z,160.00
2022-10-04T11:55:39.736Z,168.00
2022-10-04T11:56:39.683Z,148.00
2022-10-04T11:57:39.627Z,124.00
2022-10-04T11:58:39.575Z,124.00
2022-10-04T11:59:39.517Z,124.00
2022-10-04T12:00:39.465Z,140.00
2022-10-04T12:01:39.410Z,144.00
2022-10-04T12:02:39.357Z,124.00
2022-10-04T12:03:39.392Z,124.00
2022-10-04T12:04:39.288Z,116.00
2022-10-04T12:05:39.194Z,100.00
2022-10-04T12:06:39.146Z,100.00
2022-10-04T12:07:39.090Z,104.00
2022-10-04T12:08:39.031Z,104.00
2022-10-04T12:09:38.974Z,116.00
2022-10-04T12:10:38.931Z,128.00
2022-10-04T12:11:38.866Z,124.00
2022-10-04T12:12:38.822Z,120.00
2022-10-04T12:13:38.765Z,128.00
2022-10-04T12:14:38.706Z,104.00
2022-10-04T12:15:38.650Z,104.00
2022-10-04T12:16:38.650Z,92.00
2022-10-04T12:17:38.545Z,128.00
2022-10-04T12:18:38.490Z,104.00
2022-10-04T12:19:40.980Z,112.00
2022-10-04T12:20:38.379Z,124.00
2022-10-04T12:21:38.324Z,108.00
2022-10-04T12:22:38.276Z,112.00
2022-10-04T12:23:38.212Z,100.00
2022-10-04T12:24:38.168Z,112.00
2022-10-04T12:25:38.141Z,112.00
2022-10-04T12:26:38.054Z,108.00
2022-10-04T12:27:38.003Z,92.00
2022-10-04T12:28:38.015Z,108.00
2022-10-04T12:29:37.904Z,108.00
2022-10-04T12:30:37.835Z,108.00
2022-10-04T12:31:37.834Z,108.00
2022-10-04T12:32:37.728Z,104.00
2022-10-04T12:33:37.671Z,104.00
2022-10-04T12:34:37.618Z,104.00
2022-10-04T12:35:37.560Z,104.00
2022-10-04T12:36:37.509Z,104.00
2022-10-04T12:37:37.455Z,104.00
2022-10-04T12:38:37.465Z,104.00
2022-10-04T12:39:37.344Z,108.00
2022-10-04T12:40:37.295Z,112.00
2022-10-04T12:41:37.235Z,112.00
2022-10-04T12:42:37.184Z,120.00
2022-10-04T12:43:37.128Z,124.00
2022-10-04T12:44:37.076Z,140.00
2022-10-04T12:45:37.054Z,148.00
2022-10-04T12:46:36.973Z,156.00
2022-10-04T12:47:36.911Z,168.00
2022-10-04T12:48:36.857Z,168.00
2022-10-04T12:49:36.803Z,168.00
2022-10-04T12:50:36.763Z,172.00
2022-10-04T12:51:36.694Z,164.00
2022-10-04T12:52:39.487Z,168.00
2022-10-04T12:53:36.584Z,164.00
2022-10-04T12:54:36.538Z,152.00
2022-10-04T12:55:36.479Z,132.00
2022-10-04T12:56:36.428Z,100.00